Aspinwall, PA

12:01 PM EDT on September 02, 2014 (GMT -0400)
O'Hara Township | Change Station
CLOSE
Current Station
Personal Weather Station
Location: Pittsburgh, PA
Elevation: 732 ft
Nearby Weather Stations

Elev 732 ft 40.49 °N, 79.89 °W | Updated 5 minutes ago

Overcast
Overcast
79.9 °F
Feels Like 84 °F
N
2.7
Wind Variable Wind from NE

Today
High -- | Low -- °F
--% Chance of Precip.
Yesterday
High -- | Low -- °F
Precip. -- in
6:47 AM 7:50 PM
First Quarter, 52% visible
Pressure 29.96 in
Visibility 6.0 miles
Clouds Scattered Clouds 1400 ft
Mostly Cloudy 2600 ft
Mostly Cloudy 3000 ft
Heat Index 84 °F
Dew Point 72 °F
Humidity 78%
Rainfall 0.00 in
Snow Depth Not available.
UV 4 out of 12
Pollen 7.60 out of 12
Ozone Good
PM2.5 Moderate
Flu Activity Not available.
METAR KAGC 021553Z 21009KT 6SM HZ SCT014 BKN026 BKN030 25/21 A2997 RMK AO2 SLP144 T02500206

More Conditions Fewer Conditions

Pressure 29.96 in
Visibility 6.0 miles
Clouds Scattered Clouds 1400 ft
Mostly Cloudy 2600 ft
Mostly Cloudy 3000 ft
Heat Index 84 °F
Dew Point 72 °F
Humidity 78%
Rainfall 0.00 in
Snow Depth Not available.
UV 4 out of 12
Pollen 7.60 out of 12
Ozone Good
PM2.5 Moderate
Flu Activity Not available.
METAR KAGC 021553Z 21009KT 6SM HZ SCT014 BKN026 BKN030 25/21 A2997 RMK AO2 SLP144 T02500206

More Conditions Fewer Conditions

10-Day Weather Forecast

Almanac

Astronomy

Sep. 02, 2014 Rise Set
Actual Time 6:47 AM EDT 7:50 PM EDT
Civil Twilight 6:19 AM EDT 8:17 PM EDT
Nautical Twilight 5:46 AM EDT 8:51 PM EDT
Astronomical Twilight 5:11 AM EDT 9:25 PM EDT
Moon 2:32 PM EDT No Moon Set
Length of Visible Light 13h 58m
Length of Day
13h 02m
Tomorrow will be 2m 35s shorter.
First Quarter, 52% of the Moon is Illuminated
Today
First Quarter
Sep 8
Full
Sep 15
Last Quarter
Sep 24
New
Oct 1
First Quarter

Today's Extremes

State Highs State Lows

Community

WunderPhotos

Upload Photos

1,749,706 photos uploaded!

Nearby

Air Quality

  Air Quality AQ Index Pollutant
Yesterday Good
PM2.5
Yesterday Good
OZONE
Current Moderate
PM2.5
Current Good
OZONE
Tuesday Moderate
PM2.5
Tuesday Good
OZONE
Wednesday Good
PM2.5
Wednesday Good
OZONE

Snow Depth

Station Depth Elevation
No new snow has been reported.

Earthquake Activity

City Distance Mag. Time & Date
No recent earthquake activity has been reported nearby.
Minimum magnitude displayed is 2.5.

Coastal Water Temperatures

Place Temperature
No Stations Reporting

Nearby Weather Stations